KNTD

Point Mugu NAS (Naval Base Ventura Co) Airport

Oxnard, California, USA
METAR KNTD 182158Z 26011KT 10SM FEW015 21/12 A3002 RMK AO2 SLP166 T02060117 VISNO N $
Observed Flight Rules
Jun-18 @ 21:58 UTC (52 minutes ago) Visual Flight Rules
Wind Visibility Clouds
260° at 11 knots 10 miles
  • Few at 1,500' AGL
Temperatures Readings
Current 21°C / 70°F
Dewpoint 12°C / 54°F
Humidity 57%
Altimeter 30.02" Hg
Pressure 1016.6 hPa
Elevation 4
METAR KNTD 182158Z 26011KT 10SM FEW015 21/12 A3002 RMK AO2 SLP166 T02060117 VISNO N $
Observed Flight Rules
Jun-18 @ 21:58 UTC
(52 minutes ago)
VFR
Wind Visibility
260° at 11 knots 10 miles
Clouds
  • Few at 1,500' AGL
Temperature Dewpoint
21°C / 70°F 12°C / 54°F
Humidity Altimeter Pressure
57% 30.02" Hg 1016.6 hPa